createdAt,value
2022-08-18T00:01:05.587Z,16.15
2022-08-18T00:03:53.521Z,14.48
2022-08-18T00:06:19.803Z,15.90
2022-08-18T00:08:46.239Z,14.70
2022-08-18T00:11:12.866Z,14.98
2022-08-18T00:13:39.315Z,17.13
2022-08-18T00:16:06.019Z,15.35
2022-08-18T00:18:32.422Z,15.85
2022-08-18T00:20:58.856Z,16.38
2022-08-18T00:23:25.272Z,15.82
2022-08-18T00:25:52.269Z,15.70
2022-08-18T00:28:19.327Z,16.15
2022-08-18T00:30:50.184Z,15.93
2022-08-18T00:33:20.501Z,15.77
2022-08-18T00:35:46.972Z,16.00
2022-08-18T00:38:24.343Z,16.38
2022-08-18T00:40:54.136Z,17.15
2022-08-18T00:43:42.032Z,16.88
2022-08-18T00:46:12.050Z,16.63
2022-08-18T00:48:38.447Z,16.95
2022-08-18T00:51:14.078Z,16.85
2022-08-18T00:53:45.802Z,18.20
2022-08-18T00:56:22.247Z,18.05
2022-08-18T00:59:11.040Z,17.83
2022-08-18T01:01:39.174Z,16.73
2022-08-18T01:04:11.673Z,17.10
2022-08-18T01:06:51.841Z,17.08
2022-08-18T01:09:18.522Z,17.13
2022-08-18T01:11:45.320Z,17.83
2022-08-18T01:14:18.225Z,16.75
2022-08-18T01:17:07.782Z,16.60
2022-08-18T01:19:53.765Z,16.55
2022-08-18T01:22:37.023Z,16.05
2022-08-18T01:25:26.437Z,17.70
2022-08-18T01:27:55.972Z,16.98
2022-08-18T01:30:26.447Z,15.80
2022-08-18T01:32:53.065Z,16.88
2022-08-18T01:35:22.635Z,18.73
2022-08-18T01:37:49.070Z,17.35
2022-08-18T01:41:06.262Z,19.02
2022-08-18T01:43:05.307Z,18.05
2022-08-18T01:45:33.371Z,17.48
2022-08-18T01:48:00.228Z,18.38
2022-08-18T01:50:27.118Z,17.05
2022-08-18T01:52:53.646Z,17.25
2022-08-18T01:55:20.709Z,17.80
2022-08-18T01:57:47.334Z,16.63
2022-08-18T02:00:17.858Z,16.75
2022-08-18T02:02:44.829Z,16.98
2022-08-18T02:05:18.144Z,16.33
2022-08-18T02:07:44.648Z,16.65
2022-08-18T02:10:12.513Z,17.00
2022-08-18T02:12:43.147Z,16.10
2022-08-18T02:15:11.211Z,17.20
2022-08-18T02:17:39.215Z,16.58
2022-08-18T02:20:08.025Z,17.75
2022-08-18T02:22:34.703Z,16.17
2022-08-18T02:25:01.117Z,16.50
2022-08-18T02:27:28.525Z,17.25
2022-08-18T02:29:56.213Z,16.73
2022-08-18T02:32:22.635Z,17.30
2022-08-18T02:34:50.499Z,16.42
2022-08-18T02:37:17.010Z,17.08
2022-08-18T02:39:43.834Z,17.75
2022-08-18T02:42:10.276Z,17.55
2022-08-18T02:44:36.724Z,16.90
2022-08-18T02:47:03.416Z,17.90
2022-08-18T02:49:29.858Z,17.52
2022-08-18T02:51:56.259Z,18.33
2022-08-18T02:54:23.786Z,18.50
2022-08-18T02:56:52.543Z,16.65
2022-08-18T02:59:23.083Z,16.95
2022-08-18T03:01:51.946Z,17.38
2022-08-18T03:04:29.618Z,16.48
2022-08-18T03:06:59.108Z,16.50
2022-08-18T03:09:25.592Z,16.75
2022-08-18T03:11:53.400Z,18.60
2022-08-18T03:14:19.894Z,17.95
2022-08-18T03:16:53.159Z,17.52
2022-08-18T03:19:22.735Z,18.13
2022-08-18T03:21:49.224Z,17.85
2022-08-18T03:24:22.941Z,18.45
2022-08-18T03:26:51.898Z,18.48
2022-08-18T03:29:19.408Z,18.10
2022-08-18T03:31:48.425Z,18.45
2022-08-18T03:34:16.197Z,17.58
2022-08-18T03:36:42.599Z,19.17
2022-08-18T03:39:11.821Z,18.63
2022-08-18T03:41:58.868Z,18.45
2022-08-18T03:44:33.361Z,17.85
2022-08-18T03:47:02.693Z,18.55
2022-08-18T03:49:29.323Z,18.90
2022-08-18T03:51:56.123Z,17.95
2022-08-18T03:54:22.849Z,17.95
2022-08-18T03:56:49.757Z,18.98
2022-08-18T03:59:20.215Z,18.40
2022-08-18T04:01:49.085Z,17.40
2022-08-18T04:04:19.132Z,18.20
2022-08-18T04:06:53.818Z,18.33
2022-08-18T04:09:21.145Z,19.17
2022-08-18T04:11:48.950Z,18.88
2022-08-18T04:14:18.933Z,17.98
2022-08-18T04:16:46.570Z,17.98
2022-08-18T04:19:14.077Z,17.33
2022-08-18T04:21:52.501Z,18.33
2022-08-18T04:24:18.995Z,17.70
2022-08-18T04:26:47.737Z,16.83
2022-08-18T04:29:16.791Z,17.83
2022-08-18T04:31:43.692Z,17.83
2022-08-18T04:34:10.372Z,16.80
2022-08-18T04:36:37.141Z,18.73
2022-08-18T04:39:07.024Z,18.80
2022-08-18T04:41:34.458Z,18.27
2022-08-18T04:44:04.123Z,18.70
2022-08-18T04:46:35.267Z,17.45
2022-08-18T04:49:01.736Z,19.58
2022-08-18T04:52:27.043Z,19.85
2022-08-18T04:54:16.561Z,20.90
2022-08-18T04:56:43.433Z,21.00
2022-08-18T04:59:12.369Z,18.63
2022-08-18T05:01:45.731Z,19.50
2022-08-18T05:04:14.188Z,20.23
2022-08-18T05:06:43.437Z,18.42
2022-08-18T05:09:12.740Z,20.00
2022-08-18T05:11:44.428Z,21.38
2022-08-18T05:14:11.224Z,20.02
2022-08-18T05:16:48.127Z,18.55
2022-08-18T05:19:19.727Z,19.73
2022-08-18T05:21:50.765Z,20.40
2022-08-18T05:24:19.074Z,21.65
2022-08-18T05:26:45.858Z,21.95
2022-08-18T05:29:18.905Z,22.23
2022-08-18T05:31:47.528Z,21.65
2022-08-18T05:34:14.025Z,20.38
2022-08-18T05:36:46.507Z,21.40
2022-08-18T05:39:21.877Z,18.98
2022-08-18T05:42:06.067Z,21.83
2022-08-18T05:44:37.174Z,23.02
2022-08-18T05:47:10.236Z,21.67
2022-08-18T05:49:37.498Z,22.27
2022-08-18T05:52:14.868Z,21.60
2022-08-18T05:55:07.159Z,21.73
2022-08-18T05:57:42.743Z,21.85
2022-08-18T06:00:10.991Z,21.58
2022-08-18T06:02:47.913Z,21.77
2022-08-18T06:05:53.611Z,21.85
2022-08-18T06:08:25.536Z,23.00
2022-08-18T06:10:51.916Z,22.60
2022-08-18T06:13:20.504Z,20.55
2022-08-18T06:16:01.296Z,20.98
2022-08-18T06:18:47.135Z,22.70
2022-08-18T06:21:50.815Z,22.33
2022-08-18T06:24:31.279Z,22.42
2022-08-18T06:27:10.583Z,24.95
2022-08-18T06:29:58.661Z,22.00
2022-08-18T06:32:47.174Z,21.58
2022-08-18T06:35:28.658Z,20.95
2022-08-18T06:38:38.838Z,20.65
2022-08-18T06:41:40.971Z,22.02
2022-08-18T06:44:01.673Z,21.35
2022-08-18T06:46:56.119Z,20.70
2022-08-18T06:49:48.406Z,19.42
2022-08-18T06:52:29.057Z,21.17
2022-08-18T06:55:13.851Z,20.65
2022-08-18T06:57:54.919Z,22.33
2022-08-18T07:02:56.421Z,22.02
2022-08-18T07:05:30.222Z,20.65
2022-08-18T07:08:21.226Z,21.15
2022-08-18T07:10:51.378Z,20.67
2022-08-18T07:13:26.750Z,20.97
2022-08-18T07:16:56.537Z,21.13
2022-08-18T07:19:20.633Z,22.95
2022-08-18T07:22:02.161Z,22.23
2022-08-18T07:24:56.252Z,23.48
2022-08-18T07:27:41.407Z,23.50
2022-08-18T07:30:32.297Z,24.70
2022-08-18T07:33:04.866Z,26.13
2022-08-18T07:35:57.318Z,26.13
2022-08-18T07:38:46.774Z,25.73
2022-08-18T07:41:49.018Z,24.02
2022-08-18T07:44:25.141Z,23.55
2022-08-18T07:47:03.800Z,26.90
2022-08-18T07:49:36.135Z,26.73
2022-08-18T07:52:22.588Z,24.70
2022-08-18T07:55:17.801Z,24.35
2022-08-18T07:58:04.990Z,25.60
2022-08-18T08:00:58.730Z,25.50
2022-08-18T08:03:31.940Z,23.98
2022-08-18T08:06:12.493Z,24.58
2022-08-18T08:09:06.595Z,24.83
2022-08-18T08:11:50.053Z,25.05
2022-08-18T08:14:41.300Z,25.73
2022-08-18T08:17:13.732Z,25.35
2022-08-18T08:20:12.329Z,25.90
2022-08-18T08:23:04.543Z,31.20
2022-08-18T08:25:46.403Z,29.02
2022-08-18T08:28:22.988Z,29.60
2022-08-18T08:34:16.973Z,34.20
2022-08-18T08:36:46.623Z,33.88
2022-08-18T08:39:25.966Z,39.08
2022-08-18T08:42:31.714Z,32.63
2022-08-18T08:45:01.009Z,34.40
2022-08-18T08:47:36.525Z,36.17
2022-08-18T08:50:08.887Z,41.10
2022-08-18T08:52:47.658Z,41.75
2022-08-18T08:55:21.479Z,40.83
2022-08-18T08:57:53.869Z,39.42
2022-08-18T09:00:21.115Z,39.55
2022-08-18T09:03:00.608Z,39.70
2022-08-18T09:05:37.433Z,42.65
2022-08-18T09:08:34.539Z,40.92
2022-08-18T09:11:10.676Z,43.30
2022-08-18T09:14:12.321Z,42.60
2022-08-18T09:17:10.889Z,40.80
2022-08-18T09:19:56.493Z,42.75
2022-08-18T09:22:47.779Z,44.85
2022-08-18T09:25:50.063Z,43.30
2022-08-18T09:28:29.985Z,41.85
2022-08-18T09:31:08.915Z,43.83
2022-08-18T09:33:42.331Z,40.22
2022-08-18T09:36:36.057Z,45.60
2022-08-18T09:39:36.499Z,44.00
2022-08-18T09:42:11.936Z,41.70
2022-08-18T09:44:42.859Z,37.72
